• Join FlightAware (Why Join?)
  • Login
  • US Flag 
10:28PM EDT


 

Airport Tracker/Info


-or-


 

Live Flight TrackerFlight Track Log ✈ EGF2935 ✈ 02-May-2013 ✈ KMSN - KDFW

Flight Track Log - Related Links

Times and Time Zones

All times are in EDT time to prevent confusion due to time zone crossing. See the EGF2935 flight status page for this flight to view local times or setup timezone preferences in your user account.

Time Position Orientation Groundspeed Altitude Reporting Facility
EDT Latitude Longitude Course Direction KTS MPH feet Rate Location/Type
07:35AM 43.1606 -89.4242 209° Southwest 245 282 4,100  Level Chicago Center
07:36AM 42.8676 -89.4990 216° Southwest  Level FlightAware Approximate
07:36AM 43.1047 -89.4603 205° Southwest 227 261 6,400  Level Chicago Center
07:37AM 42.7761 -89.5453 200° South  Level FlightAware Approximate
07:37AM 43.0439 -89.4969 204° Southwest 235 270 8,500  Level Chicago Center
07:38AM 42.6879 -89.6026 206° Southwest  Level FlightAware Approximate
07:38AM 42.9769 -89.5353 203° Southwest 253 291 10,100  Level Chicago Center
07:39AM 42.5994 -89.6586 200° South  Level FlightAware Approximate
07:39AM 42.9022 -89.5792 203° Southwest 286 329 11,100  Level Chicago Center
07:40AM 42.5027 -89.7105 209° Southwest  Level FlightAware Approximate
07:40AM 42.8219 -89.6267 203° Southwest 311 358 12,400  Level Chicago Center
07:41AM 42.7283 -89.6875 206° Southwest 318 366 14,500 1,680 Climbing Chicago Center
07:42AM 42.6536 -89.7461 210° Southwest 312 359 15,900 1,260 Climbing Chicago Center
07:43AM 42.5794 -89.8022 209° Southwest 306 352 17,100 1,020 Climbing Chicago Center
07:44AM 42.5031 -89.8608 210° Southwest 312 359 18,100 1,020 Climbing Chicago Center
07:45AM 42.4294 -89.9150 209° Southwest 325 374 19,200 1,080 Climbing Chicago Center
07:46AM 42.3503 -89.9750 209° Southwest 327 376 20,400 1,380 Climbing Chicago Center
07:47AM 42.2511 -90.0511 210° Southwest 340 391 22,100 1,920 Climbing Chicago Center
07:48AM 42.1731 -90.1083 209° Southwest 324 373 24,400 1,740 Climbing Chicago Center
07:49AM 42.1000 -90.1628 209° Southwest 305 351 25,700 1,080 Climbing Chicago Center
07:50AM 42.0239 -90.2189 209° Southwest 312 359 26,700 960 Climbing Chicago Center
07:51AM 41.9472 -90.2756 209° Southwest 314 361 27,700 960 Climbing Chicago Center
07:52AM 41.8656 -90.3356 209° Southwest 325 374 28,700 960 Climbing Chicago Center
07:53AM 41.7828 -90.3983 209° Southwest 336 387 29,700 1,020 Climbing Chicago Center
07:54AM 41.6833 -90.4722 209° Southwest 341 392 30,900 1,020 Climbing Chicago Center
07:56AM 41.5500 -90.5692 209° Southwest 342 394 32,500 960 Climbing Kansas City Center
07:57AM 41.4658 -90.6306 209° Southwest 345 397 33,500 720 Climbing Kansas City Center
07:58AM 41.3817 -90.6922 209° Southwest 346 398 34,000 300 Climbing Kansas City Center
07:58AM 41.3472 -90.7169 208° Southwest 350 403 34,000  Level Chicago Center
07:59AM 41.2564 -90.7819 208° Southwest 367 422 34,000  Level Chicago Center
08:00AM 41.1589 -90.8525 209° Southwest 393 452 34,000  Level Chicago Center
08:01AM 41.0389 -90.9381 208° Southwest 408 470 34,000  Level Chicago Center
08:02AM 40.9383 -91.0108 209° Southwest 413 475 34,000  Level Chicago Center
08:03AM 40.8367 -91.0839 209° Southwest 415 478 34,000  Level Chicago Center
08:04AM 40.7364 -91.1550 208° Southwest 412 474 34,000  Level Chicago Center
08:05AM 40.6356 -91.2267 208° Southwest 411 473 34,000  Level Chicago Center
08:06AM 40.5283 -91.3019 208° Southwest 413 475 34,000  Level Chicago Center
08:08AM 40.4264 -91.3731 208° Southwest 415 478 34,000  Level Chicago Center
08:08AM 40.3639 -91.4153 207° Southwest 414 476 34,000  Level Kansas City Center
08:09AM 40.2633 -91.4869 209° Southwest 414 476 34,000  Level Kansas City Center
08:10AM 40.1608 -91.5578 208° Southwest 416 479 34,000  Level Kansas City Center
08:11AM 40.0597 -91.6300 209° Southwest 415 478 34,000  Level Kansas City Center
08:12AM 39.9567 -91.7006 208° Southwest 417 480 34,000  Level Kansas City Center
08:13AM 39.8556 -91.7703 208° Southwest 415 478 34,000  Level Kansas City Center
08:14AM 39.7536 -91.8408 208° Southwest 415 478 34,000  Level Kansas City Center
08:15AM 39.6506 -91.9117 208° Southwest 417 480 34,000  Level Kansas City Center
08:16AM 39.5503 -91.9800 208° Southwest 413 475 34,000  Level Kansas City Center
08:17AM 39.4489 -92.0481 207° Southwest 411 473 34,000  Level Kansas City Center
08:18AM 39.3478 -92.1169 208° Southwest 412 474 34,000  Level Kansas City Center
08:19AM 39.2428 -92.1875 207° Southwest 413 475 34,000  Level Kansas City Center
08:20AM 39.1192 -92.2700 207° Southwest 414 476 34,000  Level Kansas City Center
08:21AM 39.0167 -92.3392 208° Southwest 416 479 34,000  Level Kansas City Center
08:22AM 38.9144 -92.4081 208° Southwest 414 476 34,000  Level Kansas City Center
08:23AM 38.8117 -92.4756 207° Southwest 414 476 34,000  Level Kansas City Center
08:24AM 38.7092 -92.5456 208° Southwest 417 480 34,000  Level Kansas City Center
08:25AM 38.6067 -92.6142 208° Southwest 416 479 34,000  Level Kansas City Center
08:26AM 38.5044 -92.6811 207° Southwest 415 478 34,000  Level Kansas City Center
08:27AM 38.4006 -92.7503 208° Southwest 418 481 34,000  Level Kansas City Center
08:28AM 38.2981 -92.8172 207° Southwest 417 480 34,000  Level Kansas City Center
08:29AM 38.1958 -92.8831 207° Southwest 415 478 34,000  Level Kansas City Center
08:30AM 38.0939 -92.9511 208° Southwest 415 478 34,000  Level Kansas City Center
08:31AM 37.9697 -93.0311 207° Southwest 416 479 34,000  Level Kansas City Center
08:32AM 37.8681 -93.0978 207° Southwest 415 478 34,000  Level Kansas City Center
08:33AM 37.7653 -93.1633 207° Southwest 413 475 34,000  Level Kansas City Center
08:34AM 37.6617 -93.2300 207° Southwest 417 480 34,000  Level Kansas City Center
08:35AM 37.5572 -93.2967 207° Southwest 419 482 34,000  Level Kansas City Center
08:37AM 37.4542 -93.3631 207° Southwest 417 480 34,000  Level Kansas City Center
08:38AM 37.3500 -93.4306 207° Southwest 420 483 34,000  Level Kansas City Center
08:39AM 37.2472 -93.4950 207° Southwest 414 476 34,000  Level Kansas City Center
08:40AM 37.1436 -93.5614 207° Southwest 416 479 34,000  Level Kansas City Center
08:41AM 37.0389 -93.6278 207° Southwest 418 481 34,000  Level Kansas City Center
08:42AM 36.9144 -93.7067 207° Southwest 418 481 34,000  Level Kansas City Center
08:43AM 36.8236 -93.7611 206° Southwest 427 491 34,000  Level Kansas City Center
08:44AM 36.7186 -93.8267 207° Southwest 422 486 34,000  Level Kansas City Center
08:45AM 36.5925 -93.9050 207° Southwest 420 483 34,000  Level Kansas City Center
08:46AM 36.4822 -93.9569 201° Southwest 422 486 34,000  Level Kansas City Center
08:47AM 36.3722 -94.0128 202° Southwest 424 488 34,000  Level Kansas City Center
08:47AM 36.3422 -94.0283 203° Southwest 427 491 34,000  Level Memphis Center
08:48AM 36.2344 -94.0828 202° Southwest 421 484 34,000  Level Memphis Center
08:49AM 36.1244 -94.1342 201° Southwest 421 484 34,000  Level Memphis Center
08:50AM 36.0164 -94.1908 203° Southwest 421 484 34,000  Level Memphis Center
08:51AM 35.9061 -94.2447 202° Southwest 421 484 34,000  Level Memphis Center
08:52AM 35.7983 -94.2983 202° Southwest 421 484 34,000  Level Memphis Center
08:53AM 35.6881 -94.3519 202° Southwest 421 484 34,000  Level Memphis Center
08:54AM 35.5756 -94.4106 203° Southwest 421 484 34,000  Level Memphis Center
08:55AM 35.4675 -94.4611 201° Southwest 421 484 34,000  Level Memphis Center
08:56AM 35.3553 -94.5169 202° Southwest 426 490 34,000  Level Memphis Center
08:57AM 35.2364 -94.5744 202° Southwest 426 490 34,000  Level Memphis Center
08:58AM 35.1261 -94.6300 202° Southwest 426 490 34,000  Level Memphis Center
08:59AM 35.0447 -94.6697 202° Southwest 425 489 34,000  Level Fort Worth Center
09:00AM 34.9483 -94.7539 216° Southwest 420 483 34,000  Level Fort Worth Center
09:01AM 34.8728 -94.8297 219° Southwest 412 474 34,000  Level Fort Worth Center
09:02AM 34.7892 -94.9206 222° Southwest 412 474 34,000 -480 Level Fort Worth Center
09:03AM 34.7053 -95.0114 222° Southwest 412 474 33,100 -1,200 Descending Fort Worth Center
09:04AM 34.6236 -95.0994 222° Southwest 406 467 31,600 -1,080 Descending Fort Worth Center
09:05AM 34.5439 -95.1850 221° Southwest 406 467 31,000 -720 Descending Fort Worth Center
09:06AM 34.4597 -95.2728 221° Southwest 401 461 30,200 -1,200 Descending Fort Worth Center
09:07AM 34.3756 -95.3603 221° Southwest 401 461 28,600 -1,560 Descending Fort Worth Center
09:08AM 34.2956 -95.4453 221° Southwest 401 461 27,100 -1,560 Descending Fort Worth Center
09:09AM 34.2178 -95.5272 221° Southwest 396 456 25,500 -1,560 Descending Fort Worth Center
09:10AM 34.1292 -95.6169 220° Southwest 390 449 24,000 -780 Descending Fort Worth Center
09:11AM 34.0594 -95.6911 221° Southwest 384 442 24,000  Level Fort Worth Center
09:12AM 33.9728 -95.7806 221° Southwest 390 449 24,000  Level Fort Worth Center
09:13AM 33.8947 -95.8644 222° Southwest 390 449 24,000  Level Fort Worth Center
09:14AM 33.8100 -95.9486 220° Southwest 389 448 24,000 -900 Level Fort Worth Center
09:15AM 33.7233 -96.0400 221° Southwest 384 442 22,300 -1,800 Descending Fort Worth Center
09:16AM 33.6511 -96.1158 221° Southwest 379 436 20,500 -1,980 Descending Fort Worth Center
09:17AM 33.5625 -96.2069 221° Southwest 384 442 18,400 -1,860 Descending Fort Worth Center
09:18AM 33.4983 -96.2800 224° Southwest 376 433 16,800 -1,800 Descending Fort Worth Center
09:19AM 33.4239 -96.3706 225° Southwest 360 414 14,900 -1,800 Descending Fort Worth Center
09:20AM 33.3600 -96.4483 225° Southwest 355 409 13,300 -1,680 Descending Fort Worth Center
09:21AM 33.2875 -96.5336 225° Southwest 350 403 11,600 -1,200 Descending Fort Worth Center
09:22AM 33.2275 -96.6064 225° Southwest 326 375 11,000 -300 Descending Fort Worth Center
09:23AM 33.1736 -96.6714 225° Southwest 303 349 11,000  Level Fort Worth Center
09:24AM 33.1114 -96.7464 225° Southwest 303 349 11,000  Level Fort Worth Center
09:24AM 33.0833 -96.7667 211° Southwest 291 335 11,000  Level Dallas / Fort Worth TRACON
09:25AM 33.0333 -96.8333 228° Southwest 292 336 11,000  Level Dallas / Fort Worth TRACON
09:26AM 32.9833 -96.9000 228° Southwest 244 281 11,000 -360 Level Dallas / Fort Worth TRACON
09:27AM 32.9000 -96.9000 180° South 253 291 10,300 -1,140 Descending Dallas / Fort Worth TRACON
09:28AM 32.8333 -96.9000 180° South 251 289 8,800 -1,200 Descending Dallas / Fort Worth TRACON
09:29AM 32.7667 -96.9000 180° South 250 288 8,000 -420 Descending Dallas / Fort Worth TRACON
09:30AM 32.7000 -96.9000 180° South 246 283 8,000 -600 Level Dallas / Fort Worth TRACON
09:31AM 32.6333 -96.9000 180° South 243 280 6,900 -1,320 Descending Dallas / Fort Worth TRACON
09:32AM 32.5833 -96.9667 228° Southwest 238 274 5,600 -1,080 Descending Dallas / Fort Worth TRACON
09:33AM 32.6000 -97.0167 292° West 177 204 4,800 -720 Descending Dallas / Fort Worth TRACON
09:34AM 32.6333 -97.0500 320° Northwest 170 196 4,100 -720 Descending Dallas / Fort Worth TRACON
09:35AM 32.6833 -97.0500 360° North 146 168 3,400 -600 Descending Dallas / Fort Worth TRACON
09:36AM 32.7167 -97.0500 360° North 133 153 3,000 -240 Descending Dallas / Fort Worth TRACON
09:37AM 32.7500 -97.0500 360° North 123 142 3,000  Level Dallas / Fort Worth TRACON